Time;durP1;ratioP1;P1;durP2;ratioP2;P2;SDS_P1;SDS_P2;PMS_P1;PMS_P2;Temp;Humidity;BMP_temperature;BMP_pressure;BME280_temperature;BME280_humidity;BME280_pressure;Samples;Min_cycle;Max_cycle;Signal;HPM_P1;HPM_P2
2023/09/14 00:01:06;;;;;;;1.75;0.50;;;11.60;99.90;;;;;;5027637;27;20062;-70
2023/09/14 00:03:31;;;;;;;2.42;0.50;;;11.60;99.90;;;;;;5021118;27;20034;-70
2023/09/14 00:05:57;;;;;;;1.05;0.40;;;11.60;99.90;;;;;;5023540;28;20045;-71
2023/09/14 00:08:23;;;;;;;1.02;0.50;;;11.60;99.90;;;;;;5027597;28;20033;-71
2023/09/14 00:10:57;;;;;;;2.35;0.52;;;11.60;99.90;;;;;;5022661;28;20053;-71
2023/09/14 00:13:23;;;;;;;1.10;0.57;;;11.60;99.90;;;;;;5023606;28;20049;-70
2023/09/14 00:15:48;;;;;;;2.55;0.60;;;11.60;99.90;;;;;;5021333;28;20041;-71
2023/09/14 00:18:14;;;;;;;0.77;0.35;;;11.60;99.90;;;;;;5008443;28;20043;-71
2023/09/14 00:20:39;;;;;;;2.10;0.60;;;11.60;99.90;;;;;;5022729;28;20046;-71
2023/09/14 00:23:05;;;;;;;1.45;0.60;;;11.60;99.90;;;;;;5021629;28;20072;-71
2023/09/14 00:25:31;;;;;;;2.60;0.60;;;11.60;99.90;;;;;;5022692;28;20119;-71
2023/09/14 00:27:56;;;;;;;2.03;0.47;;;11.60;99.90;;;;;;5021477;28;20486;-71
2023/09/14 00:30:23;;;;;;;1.58;0.40;;;11.60;99.90;;;;;;5022828;28;20555;-71
2023/09/14 00:32:51;;;;;;;1.15;0.40;;;11.60;99.90;;;;;;5023196;28;20525;-71
2023/09/14 00:35:18;;;;;;;1.45;0.45;;;11.60;99.90;;;;;;5021857;28;20041;-71
2023/09/14 00:37:45;;;;;;;1.83;0.50;;;11.60;99.90;;;;;;5024421;28;20029;-70
2023/09/14 00:40:12;;;;;;;3.15;0.60;;;11.50;99.90;;;;;;5023100;28;20082;-71
2023/09/14 00:42:39;;;;;;;0.88;0.50;;;11.60;99.90;;;;;;5116902;27;20499;-71
2023/09/14 00:45:10;;;;;;;1.98;0.47;;;11.50;99.90;;;;;;5021722;28;20098;-71
2023/09/14 00:47:38;;;;;;;0.70;0.43;;;11.50;99.90;;;;;;5020663;28;20136;-71
2023/09/14 00:50:05;;;;;;;1.75;0.50;;;11.50;99.90;;;;;;5020001;27;20074;-71
2023/09/14 00:52:34;;;;;;;1.05;0.38;;;11.50;99.90;;;;;;5023825;28;20144;-71
2023/09/14 00:55:00;;;;;;;1.30;0.50;;;11.40;99.90;;;;;;5026654;28;20120;-71
2023/09/14 00:57:26;;;;;;;1.48;0.60;;;11.40;99.90;;;;;;5035392;27;20045;-71
2023/09/14 00:59:52;;;;;;;1.27;0.30;;;11.40;99.90;;;;;;5021624;28;20127;-71
2023/09/14 01:02:18;;;;;;;1.15;0.60;;;11.40;99.90;;;;;;5013440;28;20041;-71
2023/09/14 01:04:44;;;;;;;1.77;0.50;;;11.40;99.90;;;;;;5019844;28;20557;-70
2023/09/14 01:07:09;;;;;;;2.15;0.70;;;11.40;99.90;;;;;;5004734;28;20083;-70
2023/09/14 01:09:35;;;;;;;1.45;0.50;;;11.40;99.90;;;;;;5024313;28;20053;-70
2023/09/14 01:12:01;;;;;;;1.33;0.43;;;11.40;99.90;;;;;;5024143;28;20042;-71
2023/09/14 01:14:52;;;;;;;1.52;0.52;;;11.40;99.90;;;;;;5019449;28;20080;-71
2023/09/14 01:17:32;;;;;;;1.30;0.60;;;11.40;99.90;;;;;;5022252;28;20161;-70
2023/09/14 01:20:08;;;;;;;1.65;0.40;;;11.40;99.90;;;;;;5019445;28;20045;-71
2023/09/14 01:22:42;;;;;;;2.72;0.45;;;11.40;99.90;;;;;;5024359;28;20067;-71
2023/09/14 01:25:21;;;;;;;3.90;0.60;;;11.40;99.90;;;;;;5015942;28;22319;-71
2023/09/14 01:27:47;;;;;;;1.00;0.30;;;11.40;99.90;;;;;;5006358;28;20033;-71
2023/09/14 01:30:12;;;;;;;1.10;0.40;;;11.40;99.90;;;;;;5020121;28;20044;-71
2023/09/14 01:32:38;;;;;;;2.30;0.73;;;11.40;99.90;;;;;;5024742;28;20072;-71
2023/09/14 01:35:05;;;;;;;1.42;0.50;;;11.40;99.90;;;;;;5035480;27;20045;-71
2023/09/14 01:37:31;;;;;;;1.65;0.50;;;11.40;99.90;;;;;;5027324;28;20041;-71
2023/09/14 01:39:57;;;;;;;1.10;0.52;;;11.40;99.90;;;;;;5034187;28;20033;-71
2023/09/14 01:42:24;;;;;;;1.15;0.30;;;11.40;99.90;;;;;;5026482;28;20037;-71
2023/09/14 01:44:50;;;;;;;1.30;0.45;;;11.40;99.90;;;;;;5020647;28;20076;-71
2023/09/14 01:47:16;;;;;;;0.98;0.57;;;11.40;99.90;;;;;;5064910;27;20369;-71
2023/09/14 01:49:43;;;;;;;2.17;0.45;;;11.40;99.90;;;;;;5030346;28;20060;-71
2023/09/14 01:52:09;;;;;;;0.88;0.40;;;11.40;99.90;;;;;;5022491;27;20069;-71
2023/09/14 01:54:35;;;;;;;1.08;0.50;;;11.40;99.90;;;;;;5024388;28;20578;-71
2023/09/14 01:57:00;;;;;;;4.18;0.70;;;11.30;99.90;;;;;;5028408;28;20108;-71
2023/09/14 01:59:26;;;;;;;1.55;0.55;;;11.30;99.90;;;;;;5020881;27;20511;-71
2023/09/14 02:01:52;;;;;;;1.08;0.43;;;11.30;99.90;;;;;;5033556;27;20042;-71
2023/09/14 02:04:17;;;;;;;2.20;0.40;;;11.30;99.90;;;;;;5129461;27;20053;-71
2023/09/14 02:06:43;;;;;;;0.88;0.50;;;11.30;99.90;;;;;;5023328;28;20514;-71
2023/09/14 02:09:09;;;;;;;1.27;0.43;;;11.20;99.90;;;;;;5029110;27;20034;-71
2023/09/14 02:11:34;;;;;;;0.82;0.40;;;11.20;99.90;;;;;;5024517;27;20046;-71
2023/09/14 02:14:00;;;;;;;1.08;0.50;;;11.20;99.90;;;;;;5027591;28;20469;-71
2023/09/14 02:16:25;;;;;;;1.30;0.50;;;11.20;99.90;;;;;;5018777;27;20038;-71
2023/09/14 02:18:51;;;;;;;0.63;0.38;;;11.20;99.90;;;;;;5010055;28;20029;-71
2023/09/14 02:21:16;;;;;;;1.50;0.55;;;11.20;99.90;;;;;;5035396;27;20124;-71
2023/09/14 02:23:43;;;;;;;2.40;0.65;;;11.10;99.90;;;;;;5020647;27;20034;-71
2023/09/14 02:26:09;;;;;;;2.35;0.73;;;11.20;99.90;;;;;;5024114;27;20491;-71
2023/09/14 02:28:34;;;;;;;0.95;0.50;;;11.10;99.90;;;;;;5023382;28;20029;-71
2023/09/14 02:31:05;;;;;;;1.92;0.57;;;11.10;99.90;;;;;;5020752;27;20426;-71
2023/09/14 02:33:31;;;;;;;2.38;0.55;;;11.10;99.90;;;;;;5023006;28;20038;-71
2023/09/14 02:35:56;;;;;;;2.72;0.50;;;11.10;99.90;;;;;;5026468;27;20221;-71
2023/09/14 02:38:22;;;;;;;1.55;0.60;;;11.10;99.90;;;;;;5073545;27;20027;-71
2023/09/14 02:40:47;;;;;;;1.33;0.50;;;11.10;99.90;;;;;;5064830;27;20096;-71
2023/09/14 02:43:13;;;;;;;2.17;0.90;;;11.10;99.90;;;;;;5022387;28;20038;-71
2023/09/14 02:45:38;;;;;;;3.15;0.80;;;11.10;99.90;;;;;;5007048;28;20491;-71
2023/09/14 02:48:04;;;;;;;1.25;0.40;;;11.00;99.90;;;;;;5026100;28;20399;-71
2023/09/14 02:50:30;;;;;;;1.02;0.50;;;11.10;99.90;;;;;;5023338;28;20045;-71
2023/09/14 02:52:55;;;;;;;2.38;0.40;;;11.10;99.90;;;;;;5028366;28;20037;-71
2023/09/14 02:55:21;;;;;;;1.70;0.77;;;11.10;99.90;;;;;;5007463;27;20037;-71
2023/09/14 02:57:46;;;;;;;0.90;0.30;;;11.10;99.90;;;;;;5022002;27;20066;-71
2023/09/14 03:00:16;;;;;;;1.85;0.47;;;11.00;99.90;;;;;;5028115;28;20038;-71
2023/09/14 03:02:43;;;;;;;1.70;0.50;;;11.00;99.90;;;;;;5028277;28;20569;-71
2023/09/14 03:05:09;;;;;;;0.47;0.40;;;10.90;99.90;;;;;;5023245;28;20057;-71
2023/09/14 03:07:36;;;;;;;1.67;0.38;;;10.90;99.90;;;;;;5022226;28;20037;-71
2023/09/14 03:10:03;;;;;;;1.40;0.47;;;10.90;99.90;;;;;;5025671;27;20668;-71
2023/09/14 03:12:29;;;;;;;1.25;0.50;;;10.90;99.90;;;;;;5024816;28;20045;-71
2023/09/14 03:14:54;;;;;;;1.48;0.65;;;10.90;99.90;;;;;;5018699;28;20042;-71
2023/09/14 03:17:20;;;;;;;2.38;0.50;;;10.90;99.90;;;;;;5022872;28;20136;-70
2023/09/14 03:19:45;;;;;;;1.02;0.40;;;10.90;99.90;;;;;;5023463;28;20041;-71
2023/09/14 03:22:11;;;;;;;1.30;0.50;;;10.80;99.90;;;;;;5020063;27;20038;-71
2023/09/14 03:24:37;;;;;;;0.63;0.40;;;10.80;99.90;;;;;;5023060;27;20257;-70
2023/09/14 03:27:03;;;;;;;1.48;0.52;;;10.80;99.90;;;;;;5009857;27;20057;-71
2023/09/14 03:29:29;;;;;;;2.72;0.50;;;10.80;99.90;;;;;;5025221;28;20041;-71
2023/09/14 03:31:54;;;;;;;1.20;0.47;;;10.80;99.90;;;;;;5024067;28;20056;-71
2023/09/14 03:34:20;;;;;;;0.90;0.50;;;10.80;99.90;;;;;;5005424;28;20060;-71
2023/09/14 03:36:45;;;;;;;2.70;0.68;;;10.70;99.90;;;;;;5025954;28;20458;-71
2023/09/14 03:39:12;;;;;;;1.27;0.50;;;10.70;99.90;;;;;;5025797;28;20029;-71
2023/09/14 03:41:38;;;;;;;1.42;0.38;;;10.70;99.90;;;;;;5023700;28;20094;-71
2023/09/14 03:44:04;;;;;;;1.33;0.50;;;10.70;99.90;;;;;;5022346;28;20045;-71
2023/09/14 03:46:30;;;;;;;1.60;0.50;;;10.70;99.90;;;;;;5026160;28;20041;-71
2023/09/14 03:48:56;;;;;;;0.88;0.50;;;10.70;99.90;;;;;;5006902;28;20546;-72
2023/09/14 03:51:21;;;;;;;2.83;0.77;;;10.70;99.90;;;;;;5021592;28;20061;-71
2023/09/14 03:53:47;;;;;;;1.05;0.50;;;10.70;99.90;;;;;;5024228;28;20049;-71
2023/09/14 03:56:12;;;;;;;1.80;0.55;;;10.70;99.90;;;;;;5021214;28;20116;-71
2023/09/14 03:58:38;;;;;;;1.83;0.88;;;10.70;99.90;;;;;;5029337;27;20055;-70
2023/09/14 04:01:04;;;;;;;1.05;0.40;;;10.60;99.90;;;;;;5025610;27;20045;-70
2023/09/14 04:03:29;;;;;;;0.85;0.50;;;10.60;99.90;;;;;;5019904;28;20071;-71
2023/09/14 04:05:55;;;;;;;1.48;0.50;;;10.60;99.90;;;;;;5022925;27;20042;-71
2023/09/14 04:08:23;;;;;;;1.50;0.60;;;10.60;99.90;;;;;;5022573;28;20038;-71
2023/09/14 04:10:50;;;;;;;3.30;1.02;;;10.50;99.90;;;;;;5023362;27;20053;-71
2023/09/14 04:13:35;;;;;;;2.20;0.77;;;10.50;99.90;;;;;;5011037;28;20074;-70
2023/09/14 04:16:03;;;;;;;2.55;0.60;;;10.50;99.90;;;;;;5018588;28;20030;-71
2023/09/14 04:18:33;;;;;;;1.02;0.50;;;10.50;99.90;;;;;;5024759;28;20090;-70
2023/09/14 04:20:59;;;;;;;0.77;0.40;;;10.40;99.90;;;;;;5017832;28;20041;-71
2023/09/14 04:23:24;;;;;;;1.10;0.40;;;10.40;99.90;;;;;;5019570;28;20543;-71
2023/09/14 04:25:51;;;;;;;1.95;0.70;;;10.40;99.90;;;;;;5122839;27;20465;-71
2023/09/14 04:28:19;;;;;;;1.65;0.90;;;10.30;99.90;;;;;;5026224;28;20049;-70
2023/09/14 04:30:45;;;;;;;2.50;0.80;;;10.40;99.90;;;;;;5001068;28;20086;-70
2023/09/14 04:33:15;;;;;;;3.53;0.70;;;10.40;99.90;;;;;;5020262;28;20645;-71
2023/09/14 04:35:42;;;;;;;2.67;0.70;;;10.40;99.90;;;;;;5014764;28;20068;-71
2023/09/14 04:38:08;;;;;;;1.00;0.40;;;10.40;99.90;;;;;;5016951;28;20036;-70
2023/09/14 04:40:43;;;;;;;0.93;0.32;;;10.30;99.90;;;;;;5029305;27;20098;-70
2023/09/14 04:43:10;;;;;;;1.60;0.60;;;10.40;99.90;;;;;;5023569;28;20041;-71
2023/09/14 04:45:35;;;;;;;4.13;0.98;;;10.30;99.90;;;;;;5020927;28;20161;-71
2023/09/14 04:48:01;;;;;;;1.23;0.60;;;10.40;99.90;;;;;;5012004;28;20441;-70
2023/09/14 04:50:27;;;;;;;2.25;0.60;;;10.40;99.90;;;;;;5019896;28;20090;-71
2023/09/14 04:52:53;;;;;;;1.17;0.40;;;10.30;99.90;;;;;;5022105;28;20044;-71
2023/09/14 04:55:18;;;;;;;2.47;0.55;;;10.40;99.90;;;;;;5019895;28;20375;-71
2023/09/14 04:57:44;;;;;;;2.50;0.70;;;10.40;99.90;;;;;;5020827;28;20042;-71
2023/09/14 05:00:10;;;;;;;1.38;0.68;;;10.30;99.90;;;;;;5040665;27;20037;-70
2023/09/14 05:02:37;;;;;;;1.75;0.70;;;10.40;99.90;;;;;;5022984;28;20664;-71
2023/09/14 05:05:03;;;;;;;4.00;0.82;;;10.30;99.90;;;;;;5016669;28;20050;-71
2023/09/14 05:07:29;;;;;;;2.00;0.70;;;10.30;99.90;;;;;;5018759;28;20047;-71
2023/09/14 05:09:55;;;;;;;1.17;0.55;;;10.30;99.90;;;;;;5022806;28;20032;-70
2023/09/14 05:12:20;;;;;;;1.98;0.70;;;10.30;99.90;;;;;;5002178;28;20053;-71
2023/09/14 05:14:46;;;;;;;2.83;0.68;;;10.30;99.90;;;;;;5004958;28;20055;-71
2023/09/14 05:17:11;;;;;;;2.85;0.80;;;10.30;99.90;;;;;;5024529;28;20045;-71
2023/09/14 05:19:43;;;;;;;1.75;0.77;;;10.30;99.90;;;;;;5025013;28;20116;-71
2023/09/14 05:22:09;;;;;;;1.48;0.50;;;10.30;99.90;;;;;;5017488;28;20045;-70
2023/09/14 05:24:35;;;;;;;1.75;0.60;;;10.30;99.90;;;;;;5018910;28;20059;-71
2023/09/14 05:27:00;;;;;;;1.35;0.70;;;10.30;99.90;;;;;;5022556;28;20038;-70
2023/09/14 05:29:26;;;;;;;2.17;0.50;;;10.30;99.90;;;;;;5020919;28;20066;-71
2023/09/14 05:31:52;;;;;;;1.85;0.70;;;10.30;99.90;;;;;;5035086;28;20186;-71
2023/09/14 05:34:18;;;;;;;1.85;0.70;;;10.30;99.90;;;;;;5052706;28;20118;-71
2023/09/14 05:36:44;;;;;;;2.22;0.63;;;10.30;99.90;;;;;;5055513;27;20041;-71
2023/09/14 05:39:09;;;;;;;2.28;0.60;;;10.30;99.90;;;;;;5025168;28;20455;-70
2023/09/14 05:41:35;;;;;;;2.60;0.70;;;10.30;99.90;;;;;;5021683;28;20041;-71
2023/09/14 05:44:03;;;;;;;2.45;0.88;;;10.30;99.90;;;;;;5022353;28;20044;-71
2023/09/14 05:46:29;;;;;;;1.13;0.50;;;10.40;99.90;;;;;;5020916;28;20064;-71
2023/09/14 05:48:54;;;;;;;1.63;0.60;;;10.40;99.90;;;;;;5024389;28;20038;-71
2023/09/14 05:51:20;;;;;;;3.20;0.77;;;10.30;99.90;;;;;;5035125;28;20546;-71
2023/09/14 05:53:46;;;;;;;1.90;0.60;;;10.40;99.90;;;;;;5020237;28;20133;-71
2023/09/14 05:56:11;;;;;;;1.45;0.80;;;10.30;99.90;;;;;;5021473;28;20030;-71
2023/09/14 05:58:37;;;;;;;1.60;0.50;;;10.40;99.90;;;;;;5022884;28;20037;-71
2023/09/14 06:01:04;;;;;;;2.50;0.80;;;10.40;99.90;;;;;;5022114;28;20080;-71
2023/09/14 06:03:30;;;;;;;1.70;0.80;;;10.40;99.90;;;;;;5119358;27;20046;-71
2023/09/14 06:05:56;;;;;;;3.38;0.80;;;10.50;99.90;;;;;;5018695;28;20510;-71
2023/09/14 06:08:21;;;;;;;2.30;0.80;;;10.50;99.90;;;;;;5023120;28;20042;-71
2023/09/14 06:10:47;;;;;;;0.77;0.52;;;10.50;99.90;;;;;;5023432;28;20038;-71
2023/09/14 06:13:12;;;;;;;2.38;0.98;;;10.50;99.90;;;;;;5017240;28;20170;-71
2023/09/14 06:15:38;;;;;;;2.35;0.70;;;10.60;99.90;;;;;;5020074;28;20061;-71
2023/09/14 06:18:03;;;;;;;1.77;0.68;;;10.60;99.90;;;;;;4999706;28;20035;-70
2023/09/14 06:20:29;;;;;;;3.05;0.95;;;10.60;99.90;;;;;;5019587;28;20033;-71
2023/09/14 06:22:55;;;;;;;3.33;0.80;;;10.70;99.90;;;;;;5024947;27;20065;-71
2023/09/14 06:25:20;;;;;;;2.20;0.80;;;10.70;99.90;;;;;;5026388;28;20114;-71
2023/09/14 06:27:46;;;;;;;2.15;0.57;;;10.70;99.90;;;;;;5127761;27;20079;-71
2023/09/14 06:30:12;;;;;;;1.58;0.73;;;10.70;99.90;;;;;;5026062;28;20042;-70
2023/09/14 06:32:37;;;;;;;3.20;1.00;;;10.80;99.90;;;;;;5017419;27;20390;-71
2023/09/14 06:35:04;;;;;;;1.92;0.60;;;10.80;99.90;;;;;;5018891;28;20488;-70
2023/09/14 06:37:29;;;;;;;4.38;0.70;;;10.80;99.90;;;;;;5007133;28;20060;-71
2023/09/14 06:39:55;;;;;;;2.50;0.68;;;10.90;99.90;;;;;;5019759;28;20037;-71
2023/09/14 06:42:20;;;;;;;1.23;0.60;;;10.90;99.90;;;;;;5044969;27;20848;-70
2023/09/14 06:44:46;;;;;;;1.48;0.60;;;10.90;99.90;;;;;;5018601;28;20071;-71
2023/09/14 06:47:11;;;;;;;2.50;0.93;;;10.90;99.90;;;;;;5021162;27;20041;-70
2023/09/14 06:49:37;;;;;;;4.30;0.77;;;10.90;99.90;;;;;;5024517;28;20042;-71
2023/09/14 06:52:03;;;;;;;2.05;0.65;;;11.00;99.90;;;;;;5015865;27;20064;-71
2023/09/14 06:54:28;;;;;;;1.00;0.52;;;11.10;99.90;;;;;;5025554;28;20044;-71
2023/09/14 06:56:54;;;;;;;1.83;0.57;;;11.10;99.90;;;;;;5024911;28;20037;-71
2023/09/14 06:59:19;;;;;;;2.53;0.80;;;11.20;99.90;;;;;;5026794;28;20494;-70
2023/09/14 07:01:45;;;;;;;2.75;0.90;;;11.20;99.90;;;;;;5021018;28;20401;-70
2023/09/14 07:04:10;;;;;;;1.92;0.75;;;11.30;99.90;;;;;;5021890;28;20058;-70
2023/09/14 07:06:36;;;;;;;4.03;1.00;;;11.30;99.90;;;;;;5029333;28;20045;-70
2023/09/14 07:09:03;;;;;;;2.42;0.63;;;11.40;99.90;;;;;;5019456;28;20524;-70
2023/09/14 07:11:29;;;;;;;1.30;0.57;;;11.40;99.90;;;;;;5005789;28;20463;-71
2023/09/14 07:13:55;;;;;;;1.38;0.70;;;11.50;99.90;;;;;;5023349;28;20127;-71
2023/09/14 07:16:21;;;;;;;5.55;0.90;;;11.50;99.90;;;;;;5025481;27;20524;-71
2023/09/14 07:18:47;;;;;;;2.20;0.70;;;11.60;99.90;;;;;;5028213;27;20046;-71
2023/09/14 07:21:13;;;;;;;1.80;0.75;;;11.60;99.90;;;;;;5022027;28;20105;-72
2023/09/14 07:23:39;;;;;;;0.98;0.45;;;11.70;99.90;;;;;;5019987;28;20596;-71
2023/09/14 07:26:07;;;;;;;3.17;0.65;;;11.80;99.90;;;;;;5027802;27;20056;-71
2023/09/14 07:28:33;;;;;;;2.22;0.60;;;11.80;99.90;;;;;;5022137;28;20529;-71
2023/09/14 07:31:03;;;;;;;3.22;0.90;;;11.90;99.90;;;;;;5024577;28;20072;-71
2023/09/14 07:33:29;;;;;;;2.90;0.90;;;12.00;99.90;;;;;;5024877;28;20034;-71
2023/09/14 07:35:55;;;;;;;1.67;0.70;;;12.00;99.90;;;;;;5024769;28;20410;-71
2023/09/14 07:38:21;;;;;;;1.60;0.60;;;12.10;99.90;;;;;;5026950;28;20112;-71
2023/09/14 07:40:48;;;;;;;2.50;0.70;;;12.20;99.90;;;;;;5023939;28;20073;-71
2023/09/14 07:43:14;;;;;;;2.38;1.00;;;12.20;99.90;;;;;;5025615;28;20406;-71
2023/09/14 07:45:39;;;;;;;1.17;0.45;;;12.30;99.90;;;;;;5025016;28;20030;-71
2023/09/14 07:48:06;;;;;;;2.58;0.80;;;12.30;99.90;;;;;;5023045;27;20037;-71
2023/09/14 07:50:38;;;;;;;1.83;0.50;;;12.40;99.90;;;;;;5109671;27;20041;-71
2023/09/14 07:53:05;;;;;;;1.38;0.50;;;12.40;99.90;;;;;;5024869;28;21067;-71
2023/09/14 07:55:31;;;;;;;1.48;0.68;;;12.50;99.90;;;;;;5038318;27;20068;-72
2023/09/14 07:57:56;;;;;;;1.58;0.47;;;12.50;99.90;;;;;;5128637;27;20030;-71
2023/09/14 08:00:22;;;;;;;1.75;0.50;;;12.50;99.90;;;;;;5008982;28;20157;-71
2023/09/14 08:02:47;;;;;;;1.60;0.70;;;12.60;99.90;;;;;;5023572;28;20037;-71
2023/09/14 08:05:13;;;;;;;1.65;0.60;;;12.70;99.90;;;;;;5006163;28;20084;-71
2023/09/14 08:07:38;;;;;;;6.03;0.70;;;12.70;99.90;;;;;;5026308;28;20041;-71
2023/09/14 08:10:05;;;;;;;2.00;0.68;;;12.80;99.90;;;;;;5026032;28;20029;-71
2023/09/14 08:12:30;;;;;;;1.95;0.77;;;12.80;99.90;;;;;;5020254;28;20460;-71
2023/09/14 08:14:56;;;;;;;2.38;0.75;;;12.90;99.90;;;;;;5025690;27;20066;-71
2023/09/14 08:17:22;;;;;;;5.82;0.68;;;12.90;99.90;;;;;;5021595;27;20033;-71
2023/09/14 08:19:48;;;;;;;2.58;0.70;;;13.00;99.90;;;;;;5024288;28;20037;-71
2023/09/14 08:22:14;;;;;;;4.22;1.00;;;13.10;99.90;;;;;;5023877;28;20500;-71
2023/09/14 08:24:40;;;;;;;2.35;0.70;;;13.10;99.90;;;;;;5024727;28;20045;-71
2023/09/14 08:27:06;;;;;;;2.20;0.50;;;13.20;99.90;;;;;;5025144;28;20052;-72
2023/09/14 08:29:31;;;;;;;2.15;0.60;;;13.30;99.90;;;;;;5016569;28;20037;-71
2023/09/14 08:31:57;;;;;;;4.75;0.98;;;13.30;99.90;;;;;;5020361;28;20200;-71
2023/09/14 08:34:22;;;;;;;5.25;0.65;;;13.40;99.90;;;;;;5017489;27;20500;-71
2023/09/14 08:36:48;;;;;;;1.73;0.60;;;13.50;99.90;;;;;;5016571;28;20038;-71
2023/09/14 08:39:13;;;;;;;2.97;0.80;;;13.60;99.90;;;;;;5008045;28;20049;-70
2023/09/14 08:41:41;;;;;;;4.22;1.00;;;13.60;99.90;;;;;;5017927;27;20041;-71
2023/09/14 08:44:07;;;;;;;2.65;0.60;;;13.60;99.90;;;;;;5011553;28;20043;-71
2023/09/14 08:46:34;;;;;;;2.08;0.50;;;13.70;99.90;;;;;;5080428;28;20049;-71
2023/09/14 08:49:01;;;;;;;2.83;0.77;;;13.70;99.90;;;;;;5017019;28;20494;-71
2023/09/14 08:51:29;;;;;;;3.20;0.65;;;13.80;99.90;;;;;;5021656;28;20495;-71
2023/09/14 08:53:56;;;;;;;1.65;0.57;;;13.90;99.90;;;;;;5000333;28;20063;-71
2023/09/14 08:56:23;;;;;;;1.23;0.55;;;13.90;99.90;;;;;;5013035;28;20753;-71
2023/09/14 08:58:50;;;;;;;1.10;0.40;;;13.90;99.90;;;;;;5053365;27;20027;-71
2023/09/14 09:01:18;;;;;;;1.08;0.40;;;14.00;99.90;;;;;;5039011;27;20052;-71
2023/09/14 09:03:44;;;;;;;2.45;0.60;;;14.00;99.90;;;;;;5017407;28;20133;-70
2023/09/14 09:06:10;;;;;;;2.33;0.93;;;14.10;99.90;;;;;;5020153;28;20137;-71
2023/09/14 09:08:37;;;;;;;4.20;0.57;;;14.10;99.90;;;;;;5028888;28;20067;-70
2023/09/14 09:11:03;;;;;;;4.60;0.90;;;14.10;99.90;;;;;;5013374;28;20482;-70
2023/09/14 09:13:40;;;;;;;3.08;0.60;;;14.20;99.90;;;;;;5017724;28;20034;-70
2023/09/14 09:16:06;;;;;;;1.77;0.75;;;14.30;99.90;;;;;;5018886;28;20433;-70
2023/09/14 09:18:35;;;;;;;2.65;0.60;;;14.30;99.90;;;;;;5016530;28;20037;-70
2023/09/14 09:21:05;;;;;;;5.32;0.98;;;14.40;99.90;;;;;;5019350;28;20433;-70
2023/09/14 09:23:32;;;;;;;3.15;0.70;;;14.40;99.90;;;;;;5024335;28;20079;-71
2023/09/14 09:25:58;;;;;;;6.47;0.85;;;14.40;99.90;;;;;;5016870;28;20037;-70
2023/09/14 09:28:30;;;;;;;4.85;0.90;;;14.50;99.90;;;;;;5018918;28;20452;-71
2023/09/14 09:30:56;;;;;;;1.50;0.57;;;14.50;99.90;;;;;;5019887;28;20630;-71
2023/09/14 09:33:38;;;;;;;1.15;0.60;;;14.50;99.90;;;;;;5116770;27;20057;-70
2023/09/14 09:36:23;;;;;;;2.30;0.60;;;14.60;99.90;;;;;;5014700;28;20065;-70
2023/09/14 09:38:52;;;;;;;3.60;0.75;;;14.60;99.90;;;;;;5021995;28;20037;-71
2023/09/14 09:41:18;;;;;;;1.88;0.50;;;14.60;99.90;;;;;;5025373;28;20061;-70
2023/09/14 09:43:44;;;;;;;2.55;0.73;;;14.70;99.90;;;;;;5046579;28;20043;-70
2023/09/14 09:46:17;;;;;;;4.30;1.08;;;14.80;99.90;;;;;;5014968;28;20210;-71
2023/09/14 09:48:43;;;;;;;3.20;0.52;;;14.80;99.90;;;;;;5019384;28;20424;-72
2023/09/14 09:51:09;;;;;;;1.50;0.80;;;14.80;99.90;;;;;;5013974;28;20521;-70
2023/09/14 09:53:35;;;;;;;3.25;0.63;;;14.90;99.90;;;;;;5020952;28;20040;-71
2023/09/14 09:56:02;;;;;;;4.43;1.10;;;14.90;99.90;;;;;;5025272;28;20044;-71
2023/09/14 09:58:38;;;;;;;2.47;0.65;;;15.00;99.90;;;;;;5026917;28;20085;-72
2023/09/14 10:01:04;;;;;;;3.05;0.90;;;15.00;99.90;;;;;;5020770;27;20029;-72
2023/09/14 10:03:30;;;;;;;2.55;1.00;;;15.00;99.90;;;;;;5027421;27;20493;-71
2023/09/14 10:05:56;;;;;;;1.38;0.68;;;15.10;99.90;;;;;;5030542;27;20039;-71
2023/09/14 10:08:22;;;;;;;4.85;1.05;;;15.10;99.90;;;;;;5014353;28;20029;-71
2023/09/14 10:10:51;;;;;;;4.43;0.70;;;15.20;99.90;;;;;;4996778;28;20046;-71
2023/09/14 10:13:24;;;;;;;5.57;1.08;;;15.20;99.90;;;;;;5023877;28;20106;-71
2023/09/14 10:15:55;;;;;;;2.35;0.90;;;15.20;99.90;;;;;;5019907;28;20050;-71
2023/09/14 10:18:22;;;;;;;3.03;0.68;;;15.30;99.90;;;;;;5025866;28;20037;-71
2023/09/14 10:20:52;;;;;;;2.47;0.75;;;15.20;99.90;;;;;;5022575;28;20067;-71
2023/09/14 10:23:20;;;;;;;5.72;0.80;;;15.30;99.90;;;;;;5022786;27;20045;-71
2023/09/14 10:25:47;;;;;;;3.75;0.77;;;15.30;99.90;;;;;;5022681;28;20045;-71
2023/09/14 10:28:14;;;;;;;4.55;0.85;;;15.30;99.90;;;;;;5025707;28;20044;-70
2023/09/14 10:30:40;;;;;;;6.20;0.70;;;15.40;99.90;;;;;;5024442;27;20037;-70
2023/09/14 10:33:07;;;;;;;3.05;1.00;;;15.40;99.90;;;;;;5025034;28;20051;-70
2023/09/14 10:35:33;;;;;;;1.88;0.60;;;15.50;99.90;;;;;;5022528;28;20045;-71
2023/09/14 10:38:00;;;;;;;3.25;1.17;;;15.40;99.90;;;;;;5028128;27;20057;-71
2023/09/14 10:40:28;;;;;;;3.08;0.77;;;15.40;99.90;;;;;;5005040;28;20080;-70
2023/09/14 10:42:54;;;;;;;4.18;0.77;;;15.40;99.90;;;;;;5009581;28;20060;-71
2023/09/14 10:45:20;;;;;;;1.13;0.55;;;15.50;99.90;;;;;;5026870;27;20099;-71
2023/09/14 10:47:50;;;;;;;1.15;0.60;;;15.50;99.90;;;;;;5021290;28;20417;-71
2023/09/14 10:50:18;;;;;;;3.10;0.75;;;15.70;99.90;;;;;;5001635;28;20486;-71
2023/09/14 10:52:45;;;;;;;6.22;0.90;;;15.80;99.90;;;;;;5024061;28;20072;-71
2023/09/14 10:55:11;;;;;;;4.28;0.98;;;15.80;99.90;;;;;;5016543;28;20044;-71
2023/09/14 10:57:43;;;;;;;3.58;0.98;;;15.90;99.90;;;;;;5003344;28;20037;-70
2023/09/14 11:00:33;;;;;;;6.40;0.80;;;16.00;99.90;;;;;;5025084;28;20042;-70
2023/09/14 11:02:59;;;;;;;2.20;0.77;;;16.00;99.90;;;;;;5021123;28;21247;-70
2023/09/14 11:05:38;;;;;;;3.33;0.70;;;16.00;99.90;;;;;;5018412;28;20056;-70
2023/09/14 11:08:04;;;;;;;3.25;0.77;;;16.00;99.90;;;;;;5095804;27;20033;-70
2023/09/14 11:10:31;;;;;;;2.85;0.75;;;16.00;99.90;;;;;;5018896;27;20094;-71
2023/09/14 11:13:19;;;;;;;3.10;1.00;;;16.00;99.90;;;;;;5019296;28;20029;-70
2023/09/14 11:15:46;;;;;;;3.88;0.90;;;16.00;99.90;;;;;;5022704;28;20044;-70
2023/09/14 11:18:16;;;;;;;2.47;0.80;;;16.00;99.90;;;;;;5027622;27;20074;-70
2023/09/14 11:20:44;;;;;;;4.25;0.50;;;16.10;99.90;;;;;;5021343;28;20154;-70
2023/09/14 11:23:10;;;;;;;1.73;0.70;;;16.10;99.90;;;;;;5026577;28;20049;-70
2023/09/14 11:25:37;;;;;;;2.40;0.82;;;16.10;99.90;;;;;;5024930;28;21655;-70
2023/09/14 11:28:05;;;;;;;2.13;0.75;;;16.20;99.90;;;;;;5017713;27;20521;-70
2023/09/14 11:30:31;;;;;;;2.80;1.00;;;16.10;99.90;;;;;;5023407;28;20487;-70
2023/09/14 11:33:00;;;;;;;6.20;1.23;;;16.20;99.90;;;;;;5026408;28;20052;-70
2023/09/14 11:35:44;;;;;;;2.42;0.80;;;16.20;99.90;;;;;;5020906;28;20498;-70
2023/09/14 11:38:16;;;;;;;2.10;0.70;;;16.20;99.90;;;;;;5024207;28;20521;-70
2023/09/14 11:40:42;;;;;;;3.05;0.85;;;16.20;99.90;;;;;;5015993;28;20042;-70
2023/09/14 11:43:19;;;;;;;5.43;1.10;;;16.20;99.90;;;;;;5095390;27;20432;-70
2023/09/14 11:45:45;;;;;;;3.28;0.85;;;16.20;99.90;;;;;;5120865;27;20041;-70
2023/09/14 11:48:12;;;;;;;3.30;0.82;;;16.30;99.90;;;;;;5023850;28;20039;-70
2023/09/14 11:50:41;;;;;;;2.35;0.90;;;16.30;99.90;;;;;;5017267;28;20041;-70
2023/09/14 11:53:10;;;;;;;5.03;1.10;;;16.40;99.90;;;;;;5028350;28;20055;-70
2023/09/14 11:55:37;;;;;;;2.50;0.68;;;16.50;99.90;;;;;;5026230;28;20041;-70
2023/09/14 11:58:05;;;;;;;3.70;1.00;;;16.50;99.90;;;;;;5020979;28;20037;-70
2023/09/14 12:00:37;;;;;;;2.83;1.10;;;16.50;99.90;;;;;;5020917;28;20029;-71
2023/09/14 12:03:03;;;;;;;2.80;0.90;;;16.60;99.90;;;;;;5012301;28;20063;-70
2023/09/14 12:05:30;;;;;;;2.40;0.77;;;16.60;99.90;;;;;;5016095;28;20053;-70
2023/09/14 12:07:56;;;;;;;3.25;0.80;;;16.60;99.90;;;;;;5019599;27;21271;-70
2023/09/14 12:10:23;;;;;;;6.57;1.67;;;16.70;99.90;;;;;;4995450;28;20441;-70
2023/09/14 12:12:50;;;;;;;9.25;2.42;;;16.70;99.90;;;;;;5023190;28;20042;-70
2023/09/14 12:15:20;;;;;;;4.70;1.50;;;16.80;99.90;;;;;;5018431;28;20037;-70
2023/09/14 12:17:50;;;;;;;12.02;2.30;;;16.90;99.90;;;;;;5012476;27;20041;-70
2023/09/14 12:20:16;;;;;;;4.15;1.02;;;16.90;99.90;;;;;;5021599;28;20034;-70
2023/09/14 12:22:43;;;;;;;4.63;1.02;;;16.80;99.90;;;;;;5003259;28;20163;-70
2023/09/14 12:25:09;;;;;;;2.53;0.63;;;16.80;99.90;;;;;;5021009;27;20502;-71
2023/09/14 12:27:35;;;;;;;1.50;0.50;;;16.70;99.90;;;;;;5010441;28;20038;-70
2023/09/14 12:30:05;;;;;;;2.88;0.80;;;16.60;99.90;;;;;;5020781;28;20041;-70
2023/09/14 12:32:32;;;;;;;1.95;0.60;;;16.50;99.90;;;;;;5026065;28;20047;-71
2023/09/14 12:34:58;;;;;;;3.10;0.88;;;16.40;99.90;;;;;;5013351;28;20570;-70
2023/09/14 12:37:26;;;;;;;4.15;0.90;;;16.40;99.90;;;;;;5036452;27;20045;-70
2023/09/14 12:39:52;;;;;;;3.80;1.05;;;16.40;99.90;;;;;;5016826;27;20034;-70
2023/09/14 12:42:22;;;;;;;4.90;1.02;;;16.40;99.90;;;;;;5020819;27;20044;-70
2023/09/14 12:44:49;;;;;;;2.53;0.88;;;16.40;99.90;;;;;;5028110;27;20041;-70
2023/09/14 12:47:14;;;;;;;3.22;0.95;;;16.40;99.90;;;;;;5018382;27;20551;-71